Time;durP1;ratioP1;P1;durP2;ratioP2;P2;SDS_P1;SDS_P2;PMS_P1;PMS_P2;Temp;Humidity;BMP_temperature;BMP_pressure;BME280_temperature;BME280_humidity;BME280_pressure;Samples;Min_cycle;Max_cycle;Signal;HPM_P1;HPM_P2
2023/03/09 00:00:47;;;;;;;;;;;;;;;0.90;100.00;99061.50;10414975;28;20017;-62
2023/03/09 00:05:53;;;;;;;;;;;;;;;0.87;100.00;99074.53;10415054;28;19925;-62
2023/03/09 00:10:56;;;;;;;;;;;;;;;0.90;100.00;99064.09;10397276;28;19932;-62
2023/03/09 00:16:06;;;;;;;;;;;;;;;0.97;100.00;99067.22;10414141;28;19925;-63
2023/03/09 00:21:29;;;;;;;;;;;;;;;0.98;100.00;99063.75;10414733;28;20295;-63
2023/03/09 00:26:36;;;;;;;;;;;;;;;0.90;100.00;99058.09;10399921;28;19983;-62
2023/03/09 00:31:38;;;;;;;;;;;;;;;0.79;100.00;99053.44;10411958;28;20396;-63
2023/03/09 00:36:40;;;;;;;;;;;;;;;0.87;100.00;99061.63;10415104;28;19937;-63
2023/03/09 00:41:43;;;;;;;;;;;;;;;1.14;100.00;99081.91;10414246;28;19929;-62
2023/03/09 00:46:45;;;;;;;;;;;;;;;0.82;100.00;99094.50;10414463;28;19925;-62
2023/03/09 00:51:47;;;;;;;;;;;;;;;0.88;100.00;99096.00;10411865;28;19925;-63
2023/03/09 00:56:49;;;;;;;;;;;;;;;0.64;100.00;99098.75;10415470;28;19932;-63
2023/03/09 01:01:51;;;;;;;;;;;;;;;0.90;100.00;99107.06;10403615;28;19932;-63
2023/03/09 01:06:54;;;;;;;;;;;;;;;0.97;100.00;99108.44;10421083;28;19925;-63
2023/03/09 01:11:56;;;;;;;;;;;;;;;1.07;100.00;99116.59;10420126;28;19925;-63
2023/03/09 01:16:58;;;;;;;;;;;;;;;0.90;100.00;99117.38;10421062;28;19971;-63
2023/03/09 01:22:00;;;;;;;;;;;;;;;0.89;100.00;99118.25;10420389;28;19929;-63
2023/03/09 01:27:03;;;;;;;;;;;;;;;1.13;100.00;99134.38;10421221;28;19926;-63
2023/03/09 01:32:05;;;;;;;;;;;;;;;1.07;100.00;99152.69;10419157;28;19925;-63
2023/03/09 01:37:07;;;;;;;;;;;;;;;0.99;100.00;99159.94;10420919;28;19932;-62
2023/03/09 01:42:10;;;;;;;;;;;;;;;1.07;100.00;99157.84;10419118;28;20331;-63
2023/03/09 01:47:12;;;;;;;;;;;;;;;0.92;100.00;99134.44;10402335;28;19925;-63
2023/03/09 01:52:15;;;;;;;;;;;;;;;1.04;100.00;99157.97;10418516;28;19932;-63
2023/03/09 01:57:17;;;;;;;;;;;;;;;1.16;100.00;99159.19;10419381;28;19925;-63
2023/03/09 02:02:20;;;;;;;;;;;;;;;0.92;100.00;99167.09;10418051;28;20273;-63
2023/03/09 02:07:23;;;;;;;;;;;;;;;0.98;100.00;99153.13;10386188;28;19932;-63
2023/03/09 02:12:26;;;;;;;;;;;;;;;0.94;100.00;99175.59;10400208;28;19929;-63
2023/03/09 02:17:29;;;;;;;;;;;;;;;1.11;100.00;99192.91;10400310;28;20299;-63
2023/03/09 02:22:35;;;;;;;;;;;;;;;1.15;100.00;99188.47;10417497;28;19936;-63
2023/03/09 02:27:37;;;;;;;;;;;;;;;1.03;100.00;99170.03;10400793;28;19932;-63
2023/03/09 02:32:39;;;;;;;;;;;;;;;1.09;100.00;99174.06;10417763;28;19925;-63
2023/03/09 02:37:42;;;;;;;;;;;;;;;0.84;100.00;99195.78;10417863;28;19929;-62
2023/03/09 02:42:45;;;;;;;;;;;;;;;1.00;100.00;99220.88;10417036;28;20027;-62
2023/03/09 02:47:47;;;;;;;;;;;;;;;1.02;100.00;99260.31;10417388;28;19925;-63
2023/03/09 02:52:50;;;;;;;;;;;;;;;1.11;100.00;99240.13;10401168;28;20296;-63
2023/03/09 02:57:52;;;;;;;;;;;;;;;1.02;100.00;99229.38;10389970;28;20380;-63
2023/03/09 03:02:54;;;;;;;;;;;;;;;0.87;100.00;99221.41;10417465;28;19952;-63
2023/03/09 03:07:57;;;;;;;;;;;;;;;1.08;100.00;99239.44;10415336;28;19932;-63
2023/03/09 03:12:59;;;;;;;;;;;;;;;0.93;100.00;99243.50;10399176;28;19925;-63
2023/03/09 03:18:01;;;;;;;;;;;;;;;0.99;100.00;99256.13;10400422;28;19975;-63
2023/03/09 03:23:03;;;;;;;;;;;;;;;1.21;100.00;99262.94;10399265;28;19983;-63
2023/03/09 03:28:05;;;;;;;;;;;;;;;1.11;100.00;99268.50;10416108;28;20438;-63
2023/03/09 03:33:08;;;;;;;;;;;;;;;1.29;100.00;99278.91;10388177;28;20009;-63
2023/03/09 03:38:10;;;;;;;;;;;;;;;1.10;100.00;99269.38;10375691;28;19929;-63
2023/03/09 03:43:12;;;;;;;;;;;;;;;1.06;100.00;99270.44;10357752;28;19948;-63
2023/03/09 03:48:14;;;;;;;;;;;;;;;0.98;100.00;99300.03;10413223;28;20380;-63
2023/03/09 03:53:16;;;;;;;;;;;;;;;0.95;100.00;99316.44;10413659;28;19926;-63
2023/03/09 03:58:19;;;;;;;;;;;;;;;0.79;100.00;99302.50;10422236;23;19984;-63
2023/03/09 04:03:21;;;;;;;;;;;;;;;1.15;100.00;99312.19;10415763;28;19925;-63
2023/03/09 04:08:23;;;;;;;;;;;;;;;1.38;100.00;99321.50;10415206;28;20265;-63
2023/03/09 04:13:25;;;;;;;;;;;;;;;0.99;100.00;99314.56;10413476;28;20401;-63
2023/03/09 04:18:27;;;;;;;;;;;;;;;1.07;100.00;99318.50;10413802;28;19925;-63
2023/03/09 04:23:30;;;;;;;;;;;;;;;1.02;100.00;99328.16;10414143;28;19929;-62
2023/03/09 04:28:32;;;;;;;;;;;;;;;1.19;100.00;99348.06;10414526;28;19933;-63
2023/03/09 04:33:34;;;;;;;;;;;;;;;1.08;100.00;99347.69;10417641;28;19925;-63
2023/03/09 04:38:36;;;;;;;;;;;;;;;1.26;100.00;99353.81;10422400;28;19925;-63
2023/03/09 04:43:39;;;;;;;;;;;;;;;1.21;100.00;99360.91;10421472;28;19925;-63
2023/03/09 04:48:41;;;;;;;;;;;;;;;1.07;100.00;99357.16;10422315;28;20277;-62
2023/03/09 04:53:43;;;;;;;;;;;;;;;1.18;100.00;99394.53;10420098;28;19925;-62
2023/03/09 04:58:45;;;;;;;;;;;;;;;1.20;100.00;99410.81;10421423;28;20387;-63
2023/03/09 05:03:47;;;;;;;;;;;;;;;1.27;100.00;99405.31;10420614;28;20364;-63
2023/03/09 05:08:50;;;;;;;;;;;;;;;1.16;100.00;99417.84;10421108;28;19925;-62
2023/03/09 05:13:52;;;;;;;;;;;;;;;1.19;100.00;99422.84;10420908;28;19929;-62
2023/03/09 05:18:54;;;;;;;;;;;;;;;1.27;100.00;99436.25;10420086;28;19987;-62
2023/03/09 05:23:57;;;;;;;;;;;;;;;1.06;100.00;99432.84;10420525;28;19925;-63
2023/03/09 05:28:59;;;;;;;;;;;;;;;1.37;100.00;99434.16;10421278;28;19973;-63
2023/03/09 05:34:01;;;;;;;;;;;;;;;1.24;100.00;99422.66;10440269;28;19932;-63
2023/03/09 05:39:03;;;;;;;;;;;;;;;1.16;100.00;99399.78;10461235;28;19924;-63
2023/03/09 05:44:05;;;;;;;;;;;;;;;1.24;100.00;99407.19;10460721;28;20439;-63
2023/03/09 05:49:08;;;;;;;;;;;;;;;1.16;100.00;99414.41;10461052;28;20387;-62
2023/03/09 05:54:10;;;;;;;;;;;;;;;1.33;100.00;99413.69;10441375;28;20441;-62
2023/03/09 05:59:12;;;;;;;;;;;;;;;1.39;100.00;99409.13;10460656;28;19932;-63
2023/03/09 06:04:15;;;;;;;;;;;;;;;1.30;100.00;99441.31;10458772;28;19925;-63
2023/03/09 06:09:17;;;;;;;;;;;;;;;1.27;100.00;99436.25;10460324;28;20383;-62
2023/03/09 06:14:19;;;;;;;;;;;;;;;1.28;100.00;99437.13;10458926;28;19928;-62
2023/03/09 06:19:21;;;;;;;;;;;;;;;1.24;100.00;99435.56;10457754;28;19932;-63
2023/03/09 06:24:23;;;;;;;;;;;;;;;1.25;100.00;99432.09;10459062;28;19925;-63
2023/03/09 06:29:26;;;;;;;;;;;;;;;1.30;100.00;99454.19;10460094;28;19978;-63
2023/03/09 06:34:29;;;;;;;;;;;;;;;1.40;100.00;99477.03;10440064;28;20347;-63
2023/03/09 06:39:31;;;;;;;;;;;;;;;1.26;100.00;99483.59;10459115;28;19932;-62
2023/03/09 06:44:33;;;;;;;;;;;;;;;1.23;100.00;99504.34;10458958;28;20375;-62
2023/03/09 06:49:35;;;;;;;;;;;;;;;1.56;100.00;99505.63;10456921;28;20389;-63
2023/03/09 06:54:38;;;;;;;;;;;;;;;1.69;100.00;99517.13;10458070;28;19929;-62
2023/03/09 06:59:40;;;;;;;;;;;;;;;1.55;100.00;99520.28;10457231;28;19925;-63
2023/03/09 07:04:42;;;;;;;;;;;;;;;1.62;100.00;99526.03;10458815;28;19928;-63
2023/03/09 07:09:45;;;;;;;;;;;;;;;1.59;100.00;99555.34;10457983;28;19932;-63
2023/03/09 07:14:47;;;;;;;;;;;;;;;1.62;100.00;99562.13;10457588;28;19970;-62
2023/03/09 07:19:51;;;;;;;;;;;;;;;1.69;100.00;99571.31;10457354;28;19932;-62
2023/03/09 07:24:53;;;;;;;;;;;;;;;1.67;100.00;99576.53;10457498;28;19924;-62
2023/03/09 07:29:56;;;;;;;;;;;;;;;1.88;100.00;99594.63;10456113;28;19933;-63
2023/03/09 07:34:58;;;;;;;;;;;;;;;1.82;100.00;99613.78;10438980;28;19925;-63
2023/03/09 07:40:00;;;;;;;;;;;;;;;1.89;100.00;99616.13;10457481;28;19936;-63
2023/03/09 07:45:03;;;;;;;;;;;;;;;1.90;100.00;99615.19;10457590;28;19929;-63
2023/03/09 07:50:05;;;;;;;;;;;;;;;2.06;100.00;99625.75;10438737;28;19979;-63
2023/03/09 07:55:08;;;;;;;;;;;;;;;1.93;100.00;99621.06;10456410;28;19932;-63
2023/03/09 08:00:13;;;;;;;;;;;;;;;1.96;100.00;99636.44;10455673;28;19925;-63
2023/03/09 08:05:15;;;;;;;;;;;;;;;2.02;100.00;99641.38;10456591;28;20330;-63
2023/03/09 08:10:17;;;;;;;;;;;;;;;2.07;100.00;99637.75;10463692;28;20368;-63
2023/03/09 08:15:22;;;;;;;;;;;;;;;2.00;100.00;99632.84;10446164;28;19928;-63
2023/03/09 08:20:24;;;;;;;;;;;;;;;2.24;100.00;99648.25;10464549;28;19925;-63
2023/03/09 08:25:26;;;;;;;;;;;;;;;2.31;100.00;99654.00;10462260;28;19925;-63
2023/03/09 08:30:29;;;;;;;;;;;;;;;2.55;100.00;99659.88;10464274;28;19925;-63
2023/03/09 08:35:32;;;;;;;;;;;;;;;2.64;100.00;99656.03;10463685;28;19925;-63
2023/03/09 08:40:36;;;;;;;;;;;;;;;2.37;100.00;99672.66;10463793;28;19979;-63
2023/03/09 08:45:38;;;;;;;;;;;;;;;2.36;100.00;99693.41;10445042;28;19987;-62
2023/03/09 08:50:41;;;;;;;;;;;;;;;2.55;100.00;99676.19;10463525;28;20364;-62
2023/03/09 08:55:43;;;;;;;;;;;;;;;2.98;100.00;99702.81;10460241;28;19935;-62
2023/03/09 09:00:47;;;;;;;;;;;;;;;2.77;100.00;99683.06;10461941;28;20301;-62
2023/03/09 09:05:49;;;;;;;;;;;;;;;2.79;100.00;99701.91;10460318;28;20339;-63
2023/03/09 09:10:51;;;;;;;;;;;;;;;2.83;100.00;99713.00;10462397;28;19925;-63
2023/03/09 09:15:54;;;;;;;;;;;;;;;2.83;100.00;99700.91;10461438;28;19925;-63
2023/03/09 09:20:57;;;;;;;;;;;;;;;2.91;100.00;99711.75;10443203;28;19971;-63
2023/03/09 09:25:59;;;;;;;;;;;;;;;2.97;100.00;99719.22;10437288;28;19979;-63
2023/03/09 09:31:03;;;;;;;;;;;;;;;2.92;100.00;99713.41;10428934;28;19924;-63
2023/03/09 09:36:14;;;;;;;;;;;;;;;2.98;100.00;99707.16;10455144;28;20394;-63
2023/03/09 09:41:34;;;;;;;;;;;;;;;3.06;100.00;99715.41;10444521;28;19925;-63
2023/03/09 09:46:39;;;;;;;;;;;;;;;3.15;100.00;99720.19;10461378;28;20331;-63
2023/03/09 09:51:44;;;;;;;;;;;;;;;3.30;100.00;99738.53;10444392;28;19971;-63
2023/03/09 09:56:52;;;;;;;;;;;;;;;3.17;100.00;99743.38;10460969;28;19928;-63
2023/03/09 10:01:55;;;;;;;;;;;;;;;3.58;100.00;99743.31;10441508;28;19971;-63
2023/03/09 10:06:59;;;;;;;;;;;;;;;3.17;100.00;99746.81;10461146;28;19932;-63
2023/03/09 10:12:02;;;;;;;;;;;;;;;3.11;100.00;99754.84;10443253;28;19931;-63
2023/03/09 10:17:06;;;;;;;;;;;;;;;3.62;100.00;99744.84;10443349;28;19931;-63
2023/03/09 10:22:12;;;;;;;;;;;;;;;3.69;100.00;99746.22;10442101;28;20277;-63
2023/03/09 10:27:17;;;;;;;;;;;;;;;3.46;100.00;99767.13;10460311;28;19932;-63
2023/03/09 10:32:20;;;;;;;;;;;;;;;3.87;100.00;99772.22;10458909;28;20019;-63
2023/03/09 10:37:23;;;;;;;;;;;;;;;3.92;100.00;99775.44;10441639;28;19932;-64
2023/03/09 10:42:26;;;;;;;;;;;;;;;3.82;100.00;99767.22;10441438;28;20273;-64
2023/03/09 10:47:49;;;;;;;;;;;;;;;3.79;100.00;99769.97;10442032;28;19983;-63
2023/03/09 10:52:53;;;;;;;;;;;;;;;4.17;100.00;99771.66;10441641;28;19931;-63
2023/03/09 10:57:55;;;;;;;;;;;;;;;4.00;100.00;99754.34;10458347;28;19924;-64
2023/03/09 11:03:01;;;;;;;;;;;;;;;4.29;100.00;99755.56;10458287;28;19925;-63
2023/03/09 11:08:07;;;;;;;;;;;;;;;4.22;100.00;99746.38;10459311;28;19929;-64
2023/03/09 11:13:16;;;;;;;;;;;;;;;4.48;100.00;99758.09;10441444;28;19932;-63
2023/03/09 11:18:29;;;;;;;;;;;;;;;3.92;100.00;99780.59;10440272;28;19955;-63
2023/03/09 11:23:38;;;;;;;;;;;;;;;4.00;100.00;99773.31;10440479;28;19925;-63
2023/03/09 11:28:53;;;;;;;;;;;;;;;4.22;100.00;99775.75;10440495;28;19924;-63
2023/03/09 11:33:57;;;;;;;;;;;;;;;4.31;100.00;99773.63;10457337;28;20376;-63
2023/03/09 11:39:00;;;;;;;;;;;;;;;4.19;100.00;99780.22;10457787;28;19925;-63
2023/03/09 11:44:06;;;;;;;;;;;;;;;4.56;100.00;99784.47;10438524;28;19935;-63
2023/03/09 11:49:10;;;;;;;;;;;;;;;4.31;100.00;99779.66;10439764;28;19925;-64
2023/03/09 11:54:28;;;;;;;;;;;;;;;4.06;100.00;99764.41;10439174;28;19950;-64
2023/03/09 11:59:42;;;;;;;;;;;;;;;4.01;100.00;99763.78;10456528;28;20425;-64
2023/03/09 12:04:45;;;;;;;;;;;;;;;4.09;100.00;99761.69;10457148;28;19925;-64
2023/03/09 12:09:56;;;;;;;;;;;;;;;4.01;100.00;99768.97;10457061;28;19929;-63
2023/03/09 12:15:05;;;;;;;;;;;;;;;4.11;100.00;99761.63;10456317;28;19925;-64
2023/03/09 12:20:17;;;;;;;;;;;;;;;3.86;100.00;99766.16;10438513;28;20367;-63
2023/03/09 12:25:21;;;;;;;;;;;;;;;4.08;100.00;99766.03;10439192;28;19925;-63
2023/03/09 12:30:25;;;;;;;;;;;;;;;4.16;100.00;99762.25;10456679;28;19974;-63
2023/03/09 12:35:27;;;;;;;;;;;;;;;3.94;100.00;99754.63;10438880;28;19925;-63
2023/03/09 12:40:29;;;;;;;;;;;;;;;3.88;100.00;99743.66;10455831;28;20264;-63
2023/03/09 12:45:33;;;;;;;;;;;;;;;3.88;100.00;99746.25;10455754;28;19925;-63
2023/03/09 12:50:35;;;;;;;;;;;;;;;3.94;100.00;99755.47;10455644;28;19925;-63
2023/03/09 12:55:37;;;;;;;;;;;;;;;4.01;100.00;99741.31;10461926;28;19931;-63
2023/03/09 13:00:48;;;;;;;;;;;;;;;4.24;100.00;99736.81;10463157;28;19979;-63
2023/03/09 13:05:51;;;;;;;;;;;;;;;4.17;100.00;99733.66;10445564;28;19925;-63
2023/03/09 13:11:12;;;;;;;;;;;;;;;4.04;100.00;99725.63;10445079;28;19929;-63
2023/03/09 13:16:34;;;;;;;;;;;;;;;4.13;100.00;99726.09;10463076;28;19971;-63
2023/03/09 13:21:40;;;;;;;;;;;;;;;3.94;100.00;99716.63;10462289;28;19979;-62
2023/03/09 13:26:43;;;;;;;;;;;;;;;4.07;100.00;99709.13;10444666;28;19924;-63
2023/03/09 13:31:45;;;;;;;;;;;;;;;4.05;100.00;99687.59;10444347;28;19975;-62
2023/03/09 13:36:48;;;;;;;;;;;;;;;3.97;100.00;99677.63;10462427;28;19924;-62
2023/03/09 13:41:51;;;;;;;;;;;;;;;3.95;100.00;99673.44;10443852;28;20318;-62
2023/03/09 13:46:54;;;;;;;;;;;;;;;3.77;100.00;99668.22;10443713;28;19954;-62
2023/03/09 13:52:26;;;;;;;;;;;;;;;3.79;100.00;99666.38;10461815;28;19925;-63
2023/03/09 13:57:32;;;;;;;;;;;;;;;3.66;100.00;99665.28;10429827;28;19982;-63
2023/03/09 14:02:35;;;;;;;;;;;;;;;3.81;100.00;99655.97;10460602;28;20000;-63
2023/03/09 14:07:48;;;;;;;;;;;;;;;3.65;100.00;99641.16;10441934;28;19925;-63
2023/03/09 14:12:55;;;;;;;;;;;;;;;3.50;100.00;99637.53;10442648;28;20431;-63
2023/03/09 14:17:57;;;;;;;;;;;;;;;3.62;100.00;99668.94;10442514;28;20233;-63
2023/03/09 14:23:18;;;;;;;;;;;;;;;3.20;100.00;99657.91;10459906;28;19924;-63
2023/03/09 14:28:24;;;;;;;;;;;;;;;3.52;100.00;99661.59;10460431;28;19932;-63
2023/03/09 14:33:28;;;;;;;;;;;;;;;3.68;100.00;99669.50;10442383;28;19925;-62
2023/03/09 14:38:30;;;;;;;;;;;;;;;3.46;100.00;99672.25;10441794;28;19924;-63
2023/03/09 14:43:40;;;;;;;;;;;;;;;3.67;100.00;99670.41;10459739;28;19970;-63
2023/03/09 14:48:49;;;;;;;;;;;;;;;3.70;100.00;99674.59;10457036;28;19929;-62
2023/03/09 14:54:07;;;;;;;;;;;;;;;3.81;100.00;99674.09;10457602;28;19925;-63
2023/03/09 14:59:11;;;;;;;;;;;;;;;3.72;100.00;99683.97;10455891;28;19925;-63
2023/03/09 15:04:14;;;;;;;;;;;;;;;3.62;100.00;99649.06;10452654;28;20396;-62
2023/03/09 15:09:16;;;;;;;;;;;;;;;3.62;100.00;99637.88;10449389;28;19925;-63
2023/03/09 15:14:38;;;;;;;;;;;;;;;3.44;100.00;99624.03;10443806;28;19936;-63
2023/03/09 15:19:41;;;;;;;;;;;;;;;3.40;100.00;99614.75;10456025;28;19971;-64
2023/03/09 15:24:43;;;;;;;;;;;;;;;3.69;100.00;99614.22;10432827;28;19955;-64
2023/03/09 15:29:45;;;;;;;;;;;;;;;3.40;100.00;99591.47;10437487;28;19932;-64
2023/03/09 15:34:47;;;;;;;;;;;;;;;3.30;100.00;99602.25;10455543;28;19971;-64
2023/03/09 15:39:50;;;;;;;;;;;;;;;3.42;100.00;99577.53;10457225;28;20334;-64
2023/03/09 15:44:52;;;;;;;;;;;;;;;3.29;100.00;99587.63;10459486;28;19979;-64
2023/03/09 15:49:54;;;;;;;;;;;;;;;3.20;100.00;99579.47;10456458;28;19925;-64
2023/03/09 15:54:56;;;;;;;;;;;;;;;3.41;100.00;99590.56;10455705;28;19929;-64
2023/03/09 15:59:58;;;;;;;;;;;;;;;3.41;100.00;99573.25;10456955;28;19928;-64
2023/03/09 16:05:00;;;;;;;;;;;;;;;3.40;100.00;99581.97;10456352;28;19924;-64
2023/03/09 16:10:04;;;;;;;;;;;;;;;3.30;100.00;99563.44;10456230;28;19951;-64
2023/03/09 16:15:07;;;;;;;;;;;;;;;3.38;100.00;99557.91;10436186;23;19926;-64
2023/03/09 16:20:14;;;;;;;;;;;;;;;3.13;100.00;99529.78;10412356;28;19925;-64
2023/03/09 16:25:17;;;;;;;;;;;;;;;3.15;100.00;99539.13;10411808;28;20296;-64
2023/03/09 16:30:19;;;;;;;;;;;;;;;3.01;100.00;99518.25;10419906;28;19928;-64
2023/03/09 16:35:22;;;;;;;;;;;;;;;3.25;100.00;99521.44;10422958;28;19925;-64
2023/03/09 16:40:24;;;;;;;;;;;;;;;3.07;100.00;99509.38;10405811;28;20018;-64
2023/03/09 16:45:27;;;;;;;;;;;;;;;3.25;100.00;99497.31;10421774;28;19925;-64
2023/03/09 16:50:31;;;;;;;;;;;;;;;3.27;100.00;99483.38;10423020;28;19929;-64
2023/03/09 16:55:33;;;;;;;;;;;;;;;3.17;100.00;99488.16;10422198;28;20372;-64
2023/03/09 17:00:35;;;;;;;;;;;;;;;3.12;100.00;99474.59;10420688;28;20380;-64
2023/03/09 17:05:42;;;;;;;;;;;;;;;3.49;100.00;99459.06;10421759;28;20463;-65
2023/03/09 17:10:45;;;;;;;;;;;;;;;3.43;100.00;99438.66;10420106;28;19964;-64
2023/03/09 17:15:47;;;;;;;;;;;;;;;3.34;100.00;99430.41;10402664;28;19980;-64
2023/03/09 17:20:49;;;;;;;;;;;;;;;3.17;100.00;99439.00;10421810;28;19925;-64
2023/03/09 17:25:51;;;;;;;;;;;;;;;3.61;100.00;99439.47;10420305;28;19972;-64
2023/03/09 17:30:54;;;;;;;;;;;;;;;3.46;100.00;99431.59;10420911;28;20378;-64
2023/03/09 17:35:59;;;;;;;;;;;;;;;3.52;100.00;99423.50;10418436;28;20316;-64
2023/03/09 17:41:02;;;;;;;;;;;;;;;3.44;100.00;99414.47;10420966;28;19932;-64
2023/03/09 17:46:05;;;;;;;;;;;;;;;3.51;100.00;99419.25;10415600;28;19948;-64
2023/03/09 17:51:08;;;;;;;;;;;;;;;3.33;100.00;99423.59;10415335;28;20361;-64
2023/03/09 17:56:11;;;;;;;;;;;;;;;3.65;100.00;99418.56;10419347;28;19925;-64
2023/03/09 18:01:19;;;;;;;;;;;;;;;3.53;100.00;99421.75;10411538;28;20012;-64
2023/03/09 18:06:23;;;;;;;;;;;;;;;3.78;100.00;99421.34;10420815;28;19979;-64
2023/03/09 18:11:27;;;;;;;;;;;;;;;3.49;100.00;99410.72;10450471;28;20283;-64
2023/03/09 18:16:29;;;;;;;;;;;;;;;3.43;100.00;99405.00;10415344;28;19925;-64
2023/03/09 18:21:32;;;;;;;;;;;;;;;3.40;100.00;99389.66;10415639;28;19979;-64
2023/03/09 18:26:35;;;;;;;;;;;;;;;3.54;100.00;99398.38;10412912;28;19936;-64
2023/03/09 18:31:37;;;;;;;;;;;;;;;3.49;100.00;99392.59;10414374;28;19925;-64
2023/03/09 18:36:39;;;;;;;;;;;;;;;3.56;100.00;99384.53;10414828;28;20384;-64
2023/03/09 18:41:42;;;;;;;;;;;;;;;3.40;100.00;99381.91;10417232;28;19925;-64
2023/03/09 18:46:44;;;;;;;;;;;;;;;3.40;100.00;99374.13;10416393;28;19936;-64
2023/03/09 18:51:46;;;;;;;;;;;;;;;3.41;100.00;99361.09;10414885;28;19971;-64
2023/03/09 18:56:48;;;;;;;;;;;;;;;3.30;100.00;99353.06;10416635;28;19932;-64
2023/03/09 19:01:50;;;;;;;;;;;;;;;3.28;100.00;99334.19;10417855;28;19925;-64
2023/03/09 19:06:53;;;;;;;;;;;;;;;3.57;100.00;99339.63;10415392;28;19979;-64
2023/03/09 19:11:55;;;;;;;;;;;;;;;3.33;100.00;99309.75;10417562;28;19936;-64
2023/03/09 19:16:57;;;;;;;;;;;;;;;3.25;100.00;99311.91;10409738;28;19951;-64
2023/03/09 19:22:00;;;;;;;;;;;;;;;3.13;100.00;99310.78;10407391;28;19934;-64
2023/03/09 19:27:02;;;;;;;;;;;;;;;2.98;100.00;99290.84;10408806;28;20372;-64
2023/03/09 19:32:04;;;;;;;;;;;;;;;2.99;100.00;99277.00;10411929;28;20005;-64
2023/03/09 19:37:06;;;;;;;;;;;;;;;2.77;100.00;99274.66;10439570;28;20368;-64
2023/03/09 19:42:09;;;;;;;;;;;;;;;2.91;100.00;99263.66;10453164;28;19925;-64
2023/03/09 19:47:11;;;;;;;;;;;;;;;3.12;100.00;99267.72;10454992;28;19933;-64
2023/03/09 19:52:13;;;;;;;;;;;;;;;2.90;100.00;99260.22;10453708;28;19932;-64
2023/03/09 19:57:16;;;;;;;;;;;;;;;2.69;100.00;99225.94;10456632;28;19931;-64
2023/03/09 20:02:18;;;;;;;;;;;;;;;2.95;100.00;99234.94;10455088;28;19928;-64
2023/03/09 20:07:20;;;;;;;;;;;;;;;3.01;100.00;99226.06;10454284;28;19955;-64
2023/03/09 20:12:23;;;;;;;;;;;;;;;2.93;100.00;99210.09;10451713;28;19924;-64
2023/03/09 20:17:25;;;;;;;;;;;;;;;2.81;100.00;99180.56;10452878;28;19978;-64
2023/03/09 20:22:28;;;;;;;;;;;;;;;2.76;100.00;99170.44;10454339;28;19924;-64
2023/03/09 20:27:31;;;;;;;;;;;;;;;2.85;100.00;99156.19;10445457;28;19971;-64
2023/03/09 20:32:33;;;;;;;;;;;;;;;2.86;100.00;99147.53;10453371;28;19929;-64
2023/03/09 20:37:36;;;;;;;;;;;;;;;2.74;100.00;99133.50;10455388;28;19935;-64
2023/03/09 20:42:39;;;;;;;;;;;;;;;2.84;100.00;99126.13;10452582;28;20376;-64
2023/03/09 20:47:41;;;;;;;;;;;;;;;2.98;100.00;99115.03;10453743;28;20331;-64
2023/03/09 20:52:48;;;;;;;;;;;;;;;2.84;100.00;99102.00;10451572;28;20291;-64
2023/03/09 20:57:50;;;;;;;;;;;;;;;2.87;100.00;99094.09;10454335;28;19975;-64
2023/03/09 21:02:52;;;;;;;;;;;;;;;2.89;100.00;99075.00;10453488;28;19971;-64
2023/03/09 21:07:56;;;;;;;;;;;;;;;2.87;100.00;99066.47;10453722;28;19948;-64
2023/03/09 21:12:58;;;;;;;;;;;;;;;2.80;100.00;99052.22;10453411;28;19952;-64
2023/03/09 21:18:00;;;;;;;;;;;;;;;2.94;100.00;99048.88;10459018;28;20342;-64
2023/03/09 21:23:02;;;;;;;;;;;;;;;2.87;100.00;99038.03;10454697;28;19929;-64
2023/03/09 21:28:05;;;;;;;;;;;;;;;2.78;100.00;99030.78;10459482;28;19990;-64
2023/03/09 21:33:07;;;;;;;;;;;;;;;2.98;100.00;99016.81;10461833;28;20394;-64
2023/03/09 21:38:09;;;;;;;;;;;;;;;3.02;100.00;99001.94;10452145;28;19939;-64
2023/03/09 21:43:11;;;;;;;;;;;;;;;3.20;100.00;98998.34;10439773;28;19924;-64
2023/03/09 21:48:13;;;;;;;;;;;;;;;3.14;100.00;98970.22;10442157;28;19975;-64
2023/03/09 21:53:16;;;;;;;;;;;;;;;3.12;100.00;98969.50;10457923;28;19924;-64
2023/03/09 21:58:18;;;;;;;;;;;;;;;3.06;100.00;98951.72;10458557;28;20050;-64
2023/03/09 22:03:20;;;;;;;;;;;;;;;3.16;100.00;98945.97;10458107;28;19932;-64
2023/03/09 22:08:22;;;;;;;;;;;;;;;3.10;100.00;98927.38;10456974;28;19925;-64
2023/03/09 22:13:25;;;;;;;;;;;;;;;3.21;100.00;98924.16;10458551;28;20303;-64
2023/03/09 22:18:27;;;;;;;;;;;;;;;2.81;100.00;98903.13;10459953;28;20287;-64
2023/03/09 22:23:29;;;;;;;;;;;;;;;2.96;100.00;98910.06;10458845;28;19924;-64
2023/03/09 22:28:31;;;;;;;;;;;;;;;3.05;100.00;98882.84;10459186;28;19925;-64
2023/03/09 22:33:34;;;;;;;;;;;;;;;2.93;100.00;98881.78;10460363;28;19975;-64
2023/03/09 22:38:37;;;;;;;;;;;;;;;2.69;100.00;98868.47;10457730;28;19925;-64
2023/03/09 22:43:40;;;;;;;;;;;;;;;2.78;100.00;98855.88;10441641;28;19995;-64
2023/03/09 22:48:42;;;;;;;;;;;;;;;2.71;100.00;98849.41;10459325;28;19990;-64
2023/03/09 22:53:44;;;;;;;;;;;;;;;2.63;100.00;98840.41;10440420;28;20379;-64
2023/03/09 22:58:47;;;;;;;;;;;;;;;2.65;100.00;98826.47;10458484;28;19928;-64
2023/03/09 23:03:50;;;;;;;;;;;;;;;2.92;100.00;98820.66;10459155;28;19932;-64
2023/03/09 23:08:52;;;;;;;;;;;;;;;3.01;100.00;98794.28;10440862;28;20331;-64
2023/03/09 23:13:55;;;;;;;;;;;;;;;2.96;100.00;98786.78;10457772;28;19932;-64
2023/03/09 23:18:57;;;;;;;;;;;;;;;3.02;100.00;98775.25;10457761;28;19925;-64
2023/03/09 23:23:59;;;;;;;;;;;;;;;3.21;100.00;98754.34;10457763;28;20288;-64
2023/03/09 23:29:01;;;;;;;;;;;;;;;3.17;100.00;98756.25;10458290;28;19932;-64
2023/03/09 23:34:03;;;;;;;;;;;;;;;3.24;100.00;98748.13;10456518;28;19925;-64
2023/03/09 23:39:05;;;;;;;;;;;;;;;3.11;100.00;98738.53;10457235;28;20285;-64
2023/03/09 23:44:08;;;;;;;;;;;;;;;3.13;100.00;98726.34;10457137;28;19924;-64
2023/03/09 23:49:10;;;;;;;;;;;;;;;2.97;100.00;98726.41;10456742;28;19932;-64
2023/03/09 23:54:12;;;;;;;;;;;;;;;2.87;100.00;98725.28;10456816;28;19925;-64
2023/03/09 23:59:14;;;;;;;;;;;;;;;3.02;100.00;98726.13;10456908;28;20319;-64
